createdAt,value
2018-04-04T00:00:30.752Z,12.08
2018-04-04T00:01:40.665Z,12.01
2018-04-04T00:02:51.018Z,12.09
2018-04-04T00:04:01.174Z,12.01
2018-04-04T00:05:11.302Z,11.98
2018-04-04T00:06:21.457Z,12.05
2018-04-04T00:07:31.852Z,12.04
2018-04-04T00:08:42.003Z,11.94
2018-04-04T00:09:52.187Z,11.97
2018-04-04T00:11:02.383Z,11.98
2018-04-04T00:12:13.517Z,11.89
2018-04-04T00:13:23.686Z,11.87
2018-04-04T00:14:33.874Z,11.94
2018-04-04T00:15:44.102Z,11.94
2018-04-04T00:16:54.351Z,11.86
2018-04-04T00:18:04.520Z,11.77
2018-04-04T00:19:14.714Z,11.77
2018-04-04T00:20:24.589Z,11.71
2018-04-04T00:21:34.824Z,11.61
2018-04-04T00:22:44.989Z,11.58
2018-04-04T00:23:55.259Z,11.69
2018-04-04T00:25:05.699Z,11.57
2018-04-04T00:26:15.666Z,11.48
2018-04-04T00:27:25.943Z,11.46
2018-04-04T00:28:36.129Z,11.49
2018-04-04T00:29:46.284Z,11.45
2018-04-04T00:30:56.484Z,11.39
2018-04-04T00:32:06.779Z,11.39
2018-04-04T00:33:16.995Z,11.38
2018-04-04T00:34:27.206Z,11.43
2018-04-04T00:35:37.398Z,11.38
2018-04-04T00:36:47.342Z,11.42
2018-04-04T00:37:57.479Z,11.4
2018-04-04T00:39:07.635Z,11.43
2018-04-04T00:40:17.795Z,11.4
2018-04-04T00:41:27.661Z,11.39
2018-04-04T00:42:37.834Z,11.4
2018-04-04T00:43:48.055Z,11.39
2018-04-04T00:44:58.210Z,11.35
2018-04-04T00:46:08.405Z,11.39
2018-04-04T00:47:18.579Z,11.25
2018-04-04T00:48:28.944Z,11.28
2018-04-04T00:49:39.227Z,11.38
2018-04-04T00:50:49.413Z,11.43
2018-04-04T00:51:59.629Z,11.35
2018-04-04T00:53:09.397Z,11.48
2018-04-04T00:54:19.197Z,11.42
2018-04-04T00:55:29.449Z,11.43
2018-04-04T00:56:39.570Z,11.48
2018-04-04T00:57:49.466Z,11.38
2018-04-04T00:58:59.586Z,11.42
2018-04-04T01:00:09.476Z,11.39
2018-04-04T01:01:19.865Z,11.35
2018-04-04T01:02:30.041Z,11.34
2018-04-04T01:03:40.298Z,11.33
2018-04-04T01:04:50.511Z,11.34
2018-04-04T01:06:00.442Z,11.27
2018-04-04T01:07:10.629Z,11.33
2018-04-04T01:08:20.770Z,11.31
2018-04-04T01:09:31.021Z,11.3
2018-04-04T01:10:40.899Z,11.28
2018-04-04T01:11:51.121Z,11.27
2018-04-04T01:13:00.999Z,11.2
2018-04-04T01:14:10.823Z,11.13
2018-04-04T01:15:21.102Z,11.17
2018-04-04T01:16:31.039Z,11.24
2018-04-04T01:17:40.580Z,11.17
2018-04-04T01:18:50.812Z,11.13
2018-04-04T01:20:01.062Z,11.17
2018-04-04T01:21:11.212Z,11.12
2018-04-04T01:22:21.349Z,11.1
2018-04-04T01:23:31.494Z,11.13
2018-04-04T01:24:41.629Z,11.15
2018-04-04T01:25:52.386Z,11.05
2018-04-04T01:27:02.817Z,11.05
2018-04-04T01:28:13.004Z,11.1
2018-04-04T01:29:23.321Z,11.17
2018-04-04T01:30:33.475Z,11.15
2018-04-04T01:31:43.359Z,11.13
2018-04-04T01:32:53.513Z,11.12
2018-04-04T01:34:03.686Z,11.1
2018-04-04T01:35:13.044Z,11.2
2018-04-04T01:36:22.903Z,11.13
2018-04-04T01:37:33.029Z,11.17
2018-04-04T01:38:42.624Z,11.25
2018-04-04T01:39:52.610Z,11.12
2018-04-04T01:41:02.527Z,11.12
2018-04-04T01:42:12.751Z,11.24
2018-04-04T01:43:22.957Z,11.25
2018-04-04T01:44:33.284Z,11.24
2018-04-04T01:45:43.165Z,11.16
2018-04-04T01:46:52.680Z,11.28
2018-04-04T01:48:02.864Z,11.27
2018-04-04T01:49:13.012Z,11.28
2018-04-04T01:50:23.153Z,11.28
2018-04-04T01:51:33.368Z,11.28
2018-04-04T01:52:43.160Z,11.34
2018-04-04T01:53:52.990Z,11.33
2018-04-04T01:55:02.686Z,11.39
2018-04-04T01:56:12.395Z,11.39
2018-04-04T01:57:22.519Z,11.39
2018-04-04T01:58:32.278Z,11.35
2018-04-04T01:59:41.889Z,11.4
2018-04-04T02:00:52.105Z,11.43
2018-04-04T02:02:01.972Z,11.43
2018-04-04T02:03:12.381Z,11.43
2018-04-04T02:04:21.901Z,11.5
2018-04-04T02:05:32.059Z,11.48
2018-04-04T02:06:42.197Z,11.48
2018-04-04T02:07:52.079Z,11.59
2018-04-04T02:09:02.539Z,11.61
2018-04-04T02:10:12.780Z,11.61
2018-04-04T02:11:23.019Z,11.61
2018-04-04T02:12:33.170Z,11.58
2018-04-04T02:13:44.408Z,11.59
2018-04-04T02:14:54.647Z,11.48
2018-04-04T02:16:04.899Z,11.58
2018-04-04T02:17:15.130Z,11.64
2018-04-04T02:18:25.355Z,11.62
2018-04-04T02:19:35.256Z,11.5
2018-04-04T02:20:45.392Z,11.49
2018-04-04T02:21:55.555Z,11.43
2018-04-04T02:23:05.433Z,11.46
2018-04-04T02:24:15.485Z,11.45
2018-04-04T02:25:25.674Z,11.46
2018-04-04T02:26:35.881Z,11.43
2018-04-04T02:27:46.071Z,11.45
2018-04-04T02:28:56.251Z,11.5
2018-04-04T02:30:06.594Z,11.45
2018-04-04T02:31:16.936Z,11.39
2018-04-04T02:32:26.864Z,11.4
2018-04-04T02:33:37.087Z,11.42
2018-04-04T02:34:46.971Z,11.39
2018-04-04T02:35:57.217Z,11.45
2018-04-04T02:37:07.097Z,11.34
2018-04-04T02:38:17.261Z,11.42
2018-04-04T02:39:28.371Z,11.46
2018-04-04T02:40:38.518Z,11.39
2018-04-04T02:41:48.754Z,11.42
2018-04-04T02:42:59.027Z,11.42
2018-04-04T02:44:08.898Z,11.31
2018-04-04T02:45:19.062Z,11.39
2018-04-04T02:46:29.212Z,11.39
2018-04-04T02:47:39.420Z,11.42
2018-04-04T02:48:49.554Z,11.35
2018-04-04T02:49:59.681Z,11.4
2018-04-04T02:51:09.863Z,11.38
2018-04-04T02:52:20.008Z,11.42
2018-04-04T02:53:30.151Z,11.35
2018-04-04T02:54:40.037Z,11.42
2018-04-04T02:55:49.916Z,11.39
2018-04-04T02:56:59.839Z,11.3
2018-04-04T02:58:09.958Z,11.39
2018-04-04T02:59:20.108Z,11.42
2018-04-04T03:00:30.368Z,11.42
2018-04-04T03:01:40.594Z,11.43
2018-04-04T03:02:51.826Z,11.38
2018-04-04T03:04:01.724Z,11.38
2018-04-04T03:05:11.984Z,11.34
2018-04-04T03:06:22.115Z,11.33
2018-04-04T03:07:32.049Z,11.33
2018-04-04T03:08:42.522Z,11.34
2018-04-04T03:09:52.234Z,11.34
2018-04-04T03:11:02.131Z,11.28
2018-04-04T03:12:12.249Z,11.31
2018-04-04T03:13:22.407Z,11.27
2018-04-04T03:14:31.936Z,11.28
2018-04-04T03:15:42.114Z,11.3
2018-04-04T03:16:52.536Z,11.31
2018-04-04T03:18:02.943Z,11.34
2018-04-04T03:19:12.840Z,11.28
2018-04-04T03:20:23.147Z,11.23
2018-04-04T03:21:33.015Z,11.23
2018-04-04T03:22:42.652Z,11.21
2018-04-04T03:23:52.873Z,11.17
2018-04-04T03:25:03.022Z,11.16
2018-04-04T03:26:12.629Z,11.12
2018-04-04T03:27:22.957Z,11.12
2018-04-04T03:28:33.202Z,11.15
2018-04-04T03:29:43.100Z,11.03
2018-04-04T03:30:54.239Z,11.02
2018-04-04T03:32:04.418Z,11
2018-04-04T03:33:14.647Z,10.91
2018-04-04T03:34:24.589Z,10.91
2018-04-04T03:35:33.839Z,10.88
2018-04-04T03:36:44.018Z,10.9
2018-04-04T03:37:53.899Z,10.87
2018-04-04T03:39:04.101Z,10.8
2018-04-04T03:40:14.237Z,10.84
2018-04-04T03:41:24.600Z,10.79
2018-04-04T03:42:34.838Z,10.8
2018-04-04T03:43:45.106Z,10.79
2018-04-04T03:44:55.250Z,10.79
2018-04-04T03:46:05.457Z,10.8
2018-04-04T03:47:15.782Z,10.79
2018-04-04T03:48:26.037Z,10.84
2018-04-04T03:49:36.318Z,10.79
2018-04-04T03:50:46.555Z,10.84
2018-04-04T03:51:56.800Z,10.77
2018-04-04T03:53:06.712Z,10.83
2018-04-04T03:54:16.598Z,10.7
2018-04-04T03:55:26.426Z,10.73
2018-04-04T03:56:36.791Z,10.79
2018-04-04T03:57:46.910Z,10.69
2018-04-04T03:58:57.133Z,10.69
2018-04-04T04:00:07.296Z,10.69
2018-04-04T04:01:17.490Z,10.59
2018-04-04T04:02:27.621Z,10.63
2018-04-04T04:03:37.748Z,10.58
2018-04-04T04:04:47.894Z,10.54
2018-04-04T04:05:58.045Z,10.58
2018-04-04T04:07:08.220Z,10.58
2018-04-04T04:08:18.111Z,10.55
2018-04-04T04:09:28.234Z,10.58
2018-04-04T04:10:38.397Z,10.52
2018-04-04T04:11:48.534Z,10.51
2018-04-04T04:12:58.700Z,10.52
2018-04-04T04:14:08.572Z,10.47
2018-04-04T04:15:18.840Z,10.5
2018-04-04T04:16:28.693Z,10.47
2018-04-04T04:17:38.589Z,10.45
2018-04-04T04:18:48.856Z,10.42
2018-04-04T04:19:59.010Z,10.4
2018-04-04T04:21:08.878Z,10.45
2018-04-04T04:22:18.752Z,10.43
2018-04-04T04:23:28.881Z,10.34
2018-04-04T04:24:39.017Z,10.39
2018-04-04T04:25:48.897Z,10.36
2018-04-04T04:26:59.015Z,10.37
2018-04-04T04:28:09.162Z,10.33
2018-04-04T04:29:18.684Z,10.3
2018-04-04T04:30:28.512Z,10.29
2018-04-04T04:31:38.771Z,10.27
2018-04-04T04:32:49.957Z,10.22
2018-04-04T04:33:59.834Z,10.33
2018-04-04T04:35:09.748Z,10.37
2018-04-04T04:36:19.626Z,10.33
2018-04-04T04:37:29.755Z,10.22
2018-04-04T04:38:39.896Z,10.34
2018-04-04T04:39:50.040Z,10.36
2018-04-04T04:41:00.166Z,10.27
2018-04-04T04:42:10.441Z,10.26
2018-04-04T04:43:20.642Z,10.27
2018-04-04T04:44:30.833Z,10.37
2018-04-04T04:45:40.769Z,10.33
2018-04-04T04:46:50.923Z,10.3
2018-04-04T04:48:01.114Z,10.32
2018-04-04T04:49:11.272Z,10.36
2018-04-04T04:50:21.457Z,10.33
2018-04-04T04:51:31.610Z,10.34
2018-04-04T04:52:41.996Z,10.3
2018-04-04T04:53:52.198Z,10.27
2018-04-04T04:55:02.424Z,10.3
2018-04-04T04:56:12.796Z,10.3
2018-04-04T04:57:22.929Z,10.29
2018-04-04T04:58:33.090Z,10.33
2018-04-04T04:59:43.039Z,10.39
2018-04-04T05:00:53.170Z,10.3
2018-04-04T05:02:03.337Z,10.26
2018-04-04T05:03:13.513Z,10.29
2018-04-04T05:04:23.686Z,10.33
2018-04-04T05:05:33.834Z,10.3
2018-04-04T05:06:43.977Z,10.27
2018-04-04T05:07:54.132Z,10.29
2018-04-04T05:09:04.251Z,10.37
2018-04-04T05:10:14.688Z,10.36
2018-04-04T05:11:25.133Z,10.4
2018-04-04T05:12:35.043Z,10.4
2018-04-04T05:13:45.193Z,10.37
2018-04-04T05:14:54.762Z,10.47
2018-04-04T05:16:04.399Z,10.5
2018-04-04T05:17:14.285Z,10.47
2018-04-04T05:18:24.220Z,10.48
2018-04-04T05:19:35.138Z,10.48
2018-04-04T05:20:45.014Z,10.51
2018-04-04T05:21:55.140Z,10.55
2018-04-04T05:23:05.175Z,10.54
2018-04-04T05:24:14.795Z,10.55
2018-04-04T05:25:24.944Z,10.55
2018-04-04T05:26:35.108Z,10.65
2018-04-04T05:27:45.237Z,10.61
2018-04-04T05:28:54.855Z,10.66
2018-04-04T05:30:04.656Z,10.57
2018-04-04T05:31:14.806Z,10.57
2018-04-04T05:32:24.577Z,10.58
2018-04-04T05:33:34.755Z,10.61
2018-04-04T05:34:44.951Z,10.63
2018-04-04T05:35:54.871Z,10.58
2018-04-04T05:37:04.811Z,10.61
2018-04-04T05:38:14.697Z,10.66
2018-04-04T05:39:25.873Z,10.67
2018-04-04T05:40:35.903Z,10.72
2018-04-04T05:41:46.094Z,10.66
2018-04-04T05:42:56.399Z,10.72
2018-04-04T05:44:06.824Z,10.69
2018-04-04T05:45:17.943Z,10.67
2018-04-04T05:46:28.172Z,10.73
2018-04-04T05:47:38.087Z,10.69
2018-04-04T05:48:47.958Z,10.7
2018-04-04T05:49:57.977Z,10.73
2018-04-04T05:51:08.336Z,10.69
2018-04-04T05:52:19.920Z,10.73
2018-04-04T05:53:30.075Z,10.76
2018-04-04T05:54:39.971Z,10.73
2018-04-04T05:55:49.738Z,10.72
2018-04-04T05:56:58.987Z,10.69
2018-04-04T05:58:09.170Z,10.79
2018-04-04T05:59:19.497Z,10.72
2018-04-04T06:00:29.708Z,10.73
2018-04-04T06:01:39.847Z,10.7
2018-04-04T06:02:50.027Z,10.69
2018-04-04T06:04:00.012Z,10.73
2018-04-04T06:05:10.155Z,10.72
2018-04-04T06:06:20.295Z,10.69
2018-04-04T06:07:30.467Z,10.7
2018-04-04T06:08:40.320Z,10.69
2018-04-04T06:09:50.476Z,10.69
2018-04-04T06:11:00.671Z,10.67
2018-04-04T06:12:10.808Z,10.72
2018-04-04T06:13:20.952Z,10.7
2018-04-04T06:14:31.140Z,10.72
2018-04-04T06:15:41.398Z,10.63
2018-04-04T06:16:51.261Z,10.65
2018-04-04T06:18:01.418Z,10.67
2018-04-04T06:19:11.326Z,10.63
2018-04-04T06:20:21.239Z,10.66
2018-04-04T06:21:31.143Z,10.72
2018-04-04T06:22:40.843Z,10.69
2018-04-04T06:23:50.993Z,10.75
2018-04-04T06:25:00.892Z,10.69
2018-04-04T06:26:10.681Z,10.7
2018-04-04T06:27:20.822Z,10.73
2018-04-04T06:28:30.708Z,10.77
2018-04-04T06:29:40.590Z,10.75
2018-04-04T06:30:50.755Z,10.79
2018-04-04T06:32:00.631Z,10.87
2018-04-04T06:33:10.524Z,10.83
2018-04-04T06:34:20.554Z,10.85
2018-04-04T06:35:30.771Z,10.84
2018-04-04T06:36:40.950Z,10.88
2018-04-04T06:37:50.904Z,10.98
2018-04-04T06:39:00.874Z,11.05
2018-04-04T06:40:10.793Z,11.02
2018-04-04T06:41:20.592Z,11.08
2018-04-04T06:42:30.716Z,11.1
2018-04-04T06:43:40.881Z,11.21
2018-04-04T06:44:51.048Z,11.12
2018-04-04T06:46:00.959Z,11.17
2018-04-04T06:47:10.868Z,11.27
2018-04-04T06:48:20.656Z,11.24
2018-04-04T06:49:30.595Z,11.28
2018-04-04T06:50:40.815Z,11.33
2018-04-04T06:51:50.949Z,11.28
2018-04-04T06:53:00.520Z,11.39
2018-04-04T06:54:10.429Z,11.5
2018-04-04T06:55:20.708Z,11.35
2018-04-04T06:56:30.980Z,11.42
2018-04-04T06:57:41.118Z,11.52
2018-04-04T06:58:50.985Z,11.65
2018-04-04T07:00:00.836Z,11.64
2018-04-04T07:01:10.417Z,11.66
2018-04-04T07:02:20.045Z,11.8
2018-04-04T07:03:29.939Z,11.82
2018-04-04T07:04:40.077Z,11.9
2018-04-04T07:05:50.222Z,11.94
2018-04-04T07:07:00.128Z,12.07
2018-04-04T07:08:10.049Z,12.08
2018-04-04T07:09:19.958Z,12.27
2018-04-04T07:10:30.115Z,12.29
2018-04-04T07:11:40.258Z,12.37
2018-04-04T07:12:50.135Z,12.42
2018-04-04T07:14:00.018Z,12.55
2018-04-04T07:15:09.797Z,12.66
2018-04-04T07:16:19.764Z,12.64
2018-04-04T07:17:29.628Z,12.68
2018-04-04T07:18:39.831Z,12.75
2018-04-04T07:19:49.787Z,12.81
2018-04-04T07:21:00.025Z,12.82
2018-04-04T07:22:10.285Z,12.81
2018-04-04T07:23:20.490Z,12.93
2018-04-04T07:24:30.674Z,12.95
2018-04-04T07:25:40.929Z,13.11
2018-04-04T07:26:51.097Z,13.06
2018-04-04T07:28:01.320Z,13.09
2018-04-04T07:29:11.271Z,13.01
2018-04-04T07:30:20.935Z,13.06
2018-04-04T07:31:31.227Z,13.11
2018-04-04T07:32:41.121Z,13.13
2018-04-04T07:33:51.286Z,13.27
2018-04-04T07:35:00.924Z,13.21
2018-04-04T07:36:10.851Z,13.27
2018-04-04T07:37:20.907Z,13.4
2018-04-04T07:38:31.108Z,13.37
2018-04-04T07:39:41.257Z,13.36
2018-04-04T07:40:51.512Z,13.4
2018-04-04T07:42:01.414Z,13.48
2018-04-04T07:43:11.564Z,13.52
2018-04-04T07:44:21.745Z,13.56
2018-04-04T07:45:31.675Z,13.69
2018-04-04T07:46:41.593Z,13.66
2018-04-04T07:47:51.852Z,13.58
2018-04-04T07:49:02.022Z,13.59
2018-04-04T07:50:11.905Z,13.58
2018-04-04T07:51:22.117Z,13.61
2018-04-04T07:52:32.279Z,13.63
2018-04-04T07:53:42.471Z,13.69
2018-04-04T07:54:52.653Z,13.82
2018-04-04T07:56:02.491Z,13.89
2018-04-04T07:57:12.669Z,13.99
2018-04-04T07:58:22.942Z,14.19
2018-04-04T07:59:33.110Z,14.36
2018-04-04T08:00:43.345Z,14.6
2018-04-04T08:01:53.596Z,15.14
2018-04-04T08:03:03.771Z,15.79
2018-04-04T08:04:13.665Z,16.59
2018-04-04T08:05:23.540Z,17.24
2018-04-04T08:06:33.559Z,18.1
2018-04-04T08:07:43.821Z,18.95
2018-04-04T08:08:53.735Z,19.67
2018-04-04T08:10:03.673Z,20.31
2018-04-04T08:11:13.655Z,20.82
2018-04-04T08:12:23.602Z,21.38
2018-04-04T08:13:33.783Z,21.61
2018-04-04T08:14:44.058Z,21.98
2018-04-04T08:15:54.427Z,22.12
2018-04-04T08:17:04.614Z,22.18
2018-04-04T08:18:14.168Z,22.05
2018-04-04T08:19:24.424Z,22.12
2018-04-04T08:20:34.352Z,22.06
2018-04-04T08:21:44.421Z,22.15
2018-04-04T08:22:54.676Z,22.05
2018-04-04T08:24:04.895Z,22.16
2018-04-04T08:25:14.698Z,21.96
2018-04-04T08:26:24.830Z,21.72
2018-04-04T08:27:34.988Z,21.53
2018-04-04T08:28:45.136Z,21.06
2018-04-04T08:29:55.160Z,20.49
2018-04-04T08:31:05.085Z,20.21
2018-04-04T08:32:14.993Z,19.88
2018-04-04T08:33:25.185Z,19.83
2018-04-04T08:34:35.575Z,19.83
2018-04-04T08:35:46.060Z,19.93
2018-04-04T08:36:55.854Z,20.01
2018-04-04T08:38:06.147Z,19.93
2018-04-04T08:39:16.288Z,20.17
2018-04-04T08:40:26.490Z,20.26
2018-04-04T08:41:36.651Z,20.31
2018-04-04T08:42:46.823Z,20.36
2018-04-04T08:43:56.955Z,20.45
2018-04-04T08:45:07.137Z,20.71
2018-04-04T08:46:17.429Z,20.9
2018-04-04T08:47:27.952Z,21.23
2018-04-04T08:48:38.170Z,21.45
2018-04-04T08:49:48.183Z,21.75
2018-04-04T08:50:58.506Z,21.97
2018-04-04T08:52:08.698Z,22.09
2018-04-04T08:53:18.618Z,22.15
2018-04-04T08:54:28.340Z,22.18
2018-04-04T08:55:38.508Z,22.27
2018-04-04T08:57:20.593Z,22.5
2018-04-04T08:58:30.768Z,22.68
2018-04-04T08:59:40.953Z,22.82
2018-04-04T09:00:51.055Z,23.2
2018-04-04T09:02:00.968Z,23.35
2018-04-04T09:03:10.455Z,23.46
2018-04-04T09:04:19.909Z,23.53
2018-04-04T09:05:29.566Z,23.7
2018-04-04T09:06:39.454Z,24.06
2018-04-04T09:07:49.589Z,24.22
2018-04-04T09:08:59.767Z,24.75
2018-04-04T09:10:09.719Z,25.1
2018-04-04T09:11:19.952Z,25.4
2018-04-04T09:12:29.975Z,25.56
2018-04-04T09:13:40.166Z,25.59
2018-04-04T09:14:50.321Z,25.49
2018-04-04T09:16:00.215Z,25.47
2018-04-04T09:17:10.203Z,25.54
2018-04-04T09:18:20.090Z,25.42
2018-04-04T09:19:29.509Z,25.27
2018-04-04T09:20:39.034Z,25.18
2018-04-04T09:21:49.068Z,25.29
2018-04-04T09:22:59.349Z,25.47
2018-04-04T09:24:09.279Z,25.37
2018-04-04T09:25:19.439Z,25.64
2018-04-04T09:26:29.603Z,25.81
2018-04-04T09:27:39.404Z,26.19
2018-04-04T09:28:49.333Z,26.36
2018-04-04T09:29:59.586Z,26.48
2018-04-04T09:31:09.243Z,26.58
2018-04-04T09:32:19.654Z,26.62
2018-04-04T09:33:29.578Z,26.67
2018-04-04T09:34:39.491Z,26.82
2018-04-04T09:35:49.858Z,26.95
2018-04-04T09:36:59.763Z,26.98
2018-04-04T09:38:10.008Z,27.04
2018-04-04T09:39:20.194Z,26.77
2018-04-04T09:40:30.343Z,26.7
2018-04-04T09:41:40.523Z,26.46
2018-04-04T09:44:09.239Z,26.24
2018-04-04T09:46:39.186Z,26.48
2018-04-04T09:49:09.510Z,26.88
2018-04-04T09:50:19.407Z,26.93
2018-04-04T09:51:29.607Z,26.88
2018-04-04T09:52:39.498Z,26.7
2018-04-04T09:53:49.420Z,26.55
2018-04-04T09:54:59.743Z,26.59
2018-04-04T09:56:10.004Z,26.75
2018-04-04T09:57:19.920Z,26.95
2018-04-04T09:58:30.113Z,26.9
2018-04-04T09:59:40.317Z,26.58
2018-04-04T10:00:50.535Z,26.73
2018-04-04T10:02:00.717Z,26.93
2018-04-04T10:03:10.652Z,27.1
2018-04-04T10:04:20.907Z,27.27
2018-04-04T10:05:31.071Z,27.26
2018-04-04T10:06:41.239Z,27.12
2018-04-04T10:07:51.462Z,27.08
2018-04-04T10:09:01.852Z,26.99
2018-04-04T10:10:12.119Z,27.05
2018-04-04T10:11:21.927Z,27.05
2018-04-04T10:12:32.091Z,26.92
2018-04-04T10:13:42.312Z,26.73
2018-04-04T10:14:52.527Z,26.24
2018-04-04T10:16:02.725Z,25.69
2018-04-04T10:17:12.999Z,25.39
2018-04-04T10:18:23.196Z,25.19
2018-04-04T10:19:33.442Z,25.06
2018-04-04T10:20:43.697Z,24.76
2018-04-04T10:21:53.902Z,24.34
2018-04-04T10:23:04.082Z,23.72
2018-04-04T10:24:14.287Z,23.25
2018-04-04T10:25:24.481Z,22.75
2018-04-04T10:26:34.762Z,22.28
2018-04-04T10:27:45.135Z,21.87
2018-04-04T10:28:55.303Z,21.38
2018-04-04T10:30:05.488Z,21.09
2018-04-04T10:31:15.883Z,20.63
2018-04-04T10:32:26.053Z,20.38
2018-04-04T10:33:36.233Z,20.11
2018-04-04T10:34:46.457Z,19.83
2018-04-04T10:35:56.645Z,19.56
2018-04-04T10:37:06.826Z,19.33
2018-04-04T10:38:17.016Z,19.23
2018-04-04T10:39:27.250Z,19.12
2018-04-04T10:40:37.468Z,18.87
2018-04-04T10:41:47.687Z,18.67
2018-04-04T10:42:57.615Z,18.62
2018-04-04T10:44:07.547Z,18.4
2018-04-04T10:45:17.835Z,18.44
2018-04-04T10:46:28.034Z,18.56
2018-04-04T10:47:38.234Z,18.71
2018-04-04T10:48:48.460Z,18.76
2018-04-04T10:49:58.667Z,18.87
2018-04-04T10:51:08.911Z,18.94
2018-04-04T10:52:19.086Z,19.16
2018-04-04T10:53:29.247Z,19.64
2018-04-04T10:54:39.414Z,20.01
2018-04-04T10:55:49.788Z,20.46
2018-04-04T10:57:00.069Z,21
2018-04-04T10:58:10.256Z,21.04
2018-04-04T10:59:20.446Z,21.15
2018-04-04T11:00:30.673Z,21.16
2018-04-04T11:01:42.122Z,21.28
2018-04-04T11:02:52.323Z,21.5
2018-04-04T11:04:02.516Z,21.43
2018-04-04T11:05:12.666Z,21.5
2018-04-04T11:06:22.831Z,21.49
2018-04-04T11:07:33.000Z,21.38
2018-04-04T11:08:43.249Z,21.45
2018-04-04T11:09:53.472Z,21.35
2018-04-04T11:11:03.371Z,21.38
2018-04-04T11:12:13.534Z,21.1
2018-04-04T11:13:23.805Z,20.79
2018-04-04T11:14:34.950Z,20.58
2018-04-04T11:15:44.894Z,20.39
2018-04-04T11:16:55.162Z,20
2018-04-04T11:18:05.422Z,19.83
2018-04-04T11:19:15.719Z,19.45
2018-04-04T11:20:25.661Z,19.23
2018-04-04T11:21:36.090Z,19.12
2018-04-04T11:22:46.295Z,19.08
2018-04-04T11:23:56.518Z,19.05
2018-04-04T11:25:06.902Z,18.91
2018-04-04T11:26:17.116Z,18.69
2018-04-04T11:27:27.319Z,18.62
2018-04-04T11:28:37.590Z,18.56
2018-04-04T11:29:47.835Z,18.42
2018-04-04T11:30:58.118Z,18.31
2018-04-04T11:32:08.115Z,18.31
2018-04-04T11:33:18.430Z,18.32
2018-04-04T11:34:28.663Z,18.42
2018-04-04T11:35:38.596Z,18.46
2018-04-04T11:36:48.783Z,18.37
2018-04-04T11:37:58.769Z,18.32
2018-04-04T11:39:08.706Z,18.38
2018-04-04T11:40:18.278Z,18.42
2018-04-04T11:41:28.317Z,18.57
2018-04-04T11:42:38.622Z,18.69
2018-04-04T11:43:48.577Z,18.95
2018-04-04T11:44:59.094Z,19.31
2018-04-04T11:46:09.264Z,19.79
2018-04-04T11:47:19.483Z,20.24
2018-04-04T11:48:29.674Z,20.61
2018-04-04T11:49:39.882Z,21.06
2018-04-04T11:50:50.093Z,21.23
2018-04-04T11:52:00.502Z,21.58
2018-04-04T11:53:10.696Z,21.91
2018-04-04T11:54:20.563Z,22.26
2018-04-04T11:55:30.735Z,22.28
2018-04-04T11:56:40.936Z,22.31
2018-04-04T11:57:51.130Z,22.43
2018-04-04T11:59:01.040Z,22.38
2018-04-04T12:00:10.983Z,22.31
2018-04-04T12:01:21.033Z,22.33
2018-04-04T12:02:30.945Z,22.31
2018-04-04T12:03:40.908Z,22.27
2018-04-04T12:04:50.862Z,22.18
2018-04-04T12:06:00.818Z,22.12
2018-04-04T12:07:11.963Z,22.2
2018-04-04T12:08:22.147Z,22.45
2018-04-04T12:09:32.087Z,22.75
2018-04-04T12:10:42.287Z,22.96
2018-04-04T12:11:52.130Z,23.18
2018-04-04T12:13:02.376Z,23.17
2018-04-04T12:14:12.584Z,23.38
2018-04-04T12:15:22.390Z,23.5
2018-04-04T12:16:32.710Z,23.61
2018-04-04T12:17:42.943Z,23.65
2018-04-04T12:18:52.774Z,23.68
2018-04-04T12:20:03.773Z,23.6
2018-04-04T12:21:13.944Z,23.72
2018-04-04T12:22:24.121Z,23.7
2018-04-04T12:23:34.266Z,23.7
2018-04-04T12:24:44.444Z,23.72
2018-04-04T12:25:54.672Z,23.72
2018-04-04T12:27:04.937Z,23.72
2018-04-04T12:28:15.095Z,23.68
2018-04-04T12:29:25.269Z,23.57
2018-04-04T12:30:35.463Z,23.55
2018-04-04T12:31:45.689Z,23.33
2018-04-04T12:32:55.909Z,23.18
2018-04-04T12:34:06.136Z,22.73
2018-04-04T12:35:16.332Z,22.34
2018-04-04T12:36:26.514Z,21.91
2018-04-04T12:37:36.704Z,21.48
2018-04-04T12:38:46.914Z,21.22
2018-04-04T12:39:56.835Z,20.96
2018-04-04T12:41:06.401Z,20.66
2018-04-04T12:42:16.360Z,20.31
2018-04-04T12:43:26.534Z,20.34
2018-04-04T12:44:36.623Z,20.16
2018-04-04T12:45:46.854Z,20.11
2018-04-04T12:46:56.779Z,20.23
2018-04-04T12:48:06.719Z,20.27
2018-04-04T12:49:16.624Z,20.39
2018-04-04T12:50:26.351Z,20.43
2018-04-04T12:51:35.955Z,20.54
2018-04-04T12:52:46.107Z,20.51
2018-04-04T12:53:55.209Z,20.6
2018-04-04T12:55:05.140Z,20.31
2018-04-04T12:56:14.835Z,20.24
2018-04-04T12:57:25.096Z,20.2
2018-04-04T12:58:35.031Z,20.21
2018-04-04T12:59:45.191Z,20.27
2018-04-04T13:00:55.176Z,20.3
2018-04-04T13:02:05.510Z,20.34
2018-04-04T13:03:15.805Z,20.34
2018-04-04T13:04:26.011Z,20.31
2018-04-04T13:05:36.285Z,20.43
2018-04-04T13:06:46.532Z,20.43
2018-04-04T13:07:56.726Z,20.54
2018-04-04T13:09:07.327Z,20.6
2018-04-04T13:10:17.527Z,20.61
2018-04-04T13:11:27.735Z,20.51
2018-04-04T13:12:37.907Z,20.49
2018-04-04T13:13:48.134Z,20.43
2018-04-04T13:14:58.189Z,20.42
2018-04-04T13:16:08.376Z,20.35
2018-04-04T13:17:18.565Z,20.28
2018-04-04T13:18:28.807Z,20.23
2018-04-04T13:19:39.036Z,20.2
2018-04-04T13:20:49.192Z,20.05
2018-04-04T13:21:59.434Z,20.05
2018-04-04T13:23:09.471Z,20.03
2018-04-04T13:24:19.757Z,19.97
2018-04-04T13:25:30.977Z,19.9
2018-04-04T13:26:40.883Z,19.82
2018-04-04T13:27:51.091Z,19.76
2018-04-04T13:29:00.791Z,19.67
2018-04-04T13:30:10.744Z,19.64
2018-04-04T13:31:20.977Z,19.61
2018-04-04T13:32:30.907Z,19.58
2018-04-04T13:33:40.651Z,19.61
2018-04-04T13:34:50.866Z,19.71
2018-04-04T13:36:00.566Z,19.71
2018-04-04T13:37:10.779Z,19.73
2018-04-04T13:38:20.719Z,19.67
2018-04-04T13:39:30.712Z,19.73
2018-04-04T13:40:41.074Z,19.64
2018-04-04T13:41:51.631Z,19.6
2018-04-04T13:43:01.820Z,19.6
2018-04-04T13:44:12.056Z,19.52
2018-04-04T13:45:21.860Z,19.56
2018-04-04T13:46:32.075Z,19.45
2018-04-04T13:47:42.502Z,19.39
2018-04-04T13:48:52.516Z,19.37
2018-04-04T13:50:02.731Z,19.35
2018-04-04T13:51:13.906Z,19.37
2018-04-04T13:52:24.123Z,19.35
2018-04-04T13:53:34.355Z,19.33
2018-04-04T13:54:44.572Z,19.35
2018-04-04T13:55:54.498Z,19.39
2018-04-04T13:57:04.446Z,19.34
2018-04-04T13:58:14.091Z,19.27
2018-04-04T13:59:24.364Z,19.27
2018-04-04T14:00:34.660Z,19.34
2018-04-04T14:01:44.674Z,19.31
2018-04-04T14:02:54.785Z,19.27
2018-04-04T14:04:05.016Z,19.24
2018-04-04T14:05:14.825Z,19.13
2018-04-04T14:06:25.001Z,19.23
2018-04-04T14:07:35.179Z,19.12
2018-04-04T14:08:45.190Z,19
2018-04-04T14:09:55.153Z,19.19
2018-04-04T14:11:05.361Z,19.23
2018-04-04T14:12:15.302Z,19.13
2018-04-04T14:13:25.622Z,19.15
2018-04-04T14:14:35.839Z,19.15
2018-04-04T14:15:46.102Z,19.08
2018-04-04T14:16:56.301Z,19.16
2018-04-04T14:18:06.492Z,19.15
2018-04-04T14:19:16.668Z,19.06
2018-04-04T14:20:27.007Z,19.19
2018-04-04T14:21:37.275Z,19.23
2018-04-04T14:22:47.528Z,19.12
2018-04-04T14:23:57.717Z,19.16
2018-04-04T14:25:07.922Z,19.23
2018-04-04T14:26:18.133Z,19.27
2018-04-04T14:27:28.308Z,19.33
2018-04-04T14:28:39.174Z,19.27
2018-04-04T14:29:49.378Z,19.25
2018-04-04T14:30:59.593Z,19.23
2018-04-04T14:32:09.796Z,19.19
2018-04-04T14:33:20.003Z,19.16
2018-04-04T14:34:30.234Z,19.16
2018-04-04T14:35:40.217Z,19.21
2018-04-04T14:36:50.671Z,19.18
2018-04-04T14:38:00.332Z,19.16
2018-04-04T14:39:10.530Z,19.18
2018-04-04T14:40:20.023Z,19.16
2018-04-04T14:41:29.985Z,19.08
2018-04-04T14:42:39.524Z,19.08
2018-04-04T14:43:49.199Z,19.06
2018-04-04T14:44:59.376Z,19.15
2018-04-04T14:46:09.528Z,19.15
2018-04-04T14:47:19.533Z,19.21
2018-04-04T14:48:29.797Z,19.12
2018-04-04T14:49:40.044Z,19.13
2018-04-04T14:50:49.785Z,19.15
2018-04-04T14:52:00.023Z,19.19
2018-04-04T14:53:09.965Z,19.23
2018-04-04T14:54:20.157Z,19.15
2018-04-04T14:55:30.361Z,19.1
2018-04-04T14:56:40.684Z,18.98
2018-04-04T14:57:50.873Z,18.95
2018-04-04T14:59:00.795Z,18.95
2018-04-04T15:00:11.095Z,18.78
2018-04-04T15:01:21.303Z,18.73
2018-04-04T15:02:31.539Z,18.57
2018-04-04T15:03:41.706Z,18.63
2018-04-04T15:04:51.676Z,18.55
2018-04-04T15:06:01.887Z,18.56
2018-04-04T15:07:12.112Z,18.57
2018-04-04T15:08:22.314Z,18.63
2018-04-04T15:09:32.508Z,18.6
2018-04-04T15:10:42.676Z,18.55